sensor_id;sensor_type;location;lat;lon;timestamp;noise_LAeq;noise_LA_min;noise_LA_max;noise_LA01;noise_LA95
53702;Laerm;39594;52.194;9.886;2023-02-28T00:01:57;41.64;35.04;57.00;;
53702;Laerm;39594;52.194;9.886;2023-02-28T00:04:22;62.55;35.66;79.08;;
53702;Laerm;39594;52.194;9.886;2023-02-28T00:06:58;39.02;34.69;42.53;;
53702;Laerm;39594;52.194;9.886;2023-02-28T00:09:23;41.28;35.04;46.05;;
53702;Laerm;39594;52.194;9.886;2023-02-28T00:11:58;39.27;34.31;42.36;;
53702;Laerm;39594;52.194;9.886;2023-02-28T00:14:35;38.98;33.90;42.98;;
53702;Laerm;39594;52.194;9.886;2023-02-28T00:17:10;39.00;34.31;41.82;;
53702;Laerm;39594;52.194;9.886;2023-02-28T00:19:35;38.92;33.90;41.89;;
53702;Laerm;39594;52.194;9.886;2023-02-28T00:22:00;39.13;34.31;41.82;;
53702;Laerm;39594;52.194;9.886;2023-02-28T00:24:58;39.27;32.35;42.35;;
53702;Laerm;39594;52.194;9.886;2023-02-28T00:27:26;39.62;35.04;43.19;;
53702;Laerm;39594;52.194;9.886;2023-02-28T00:29:58;38.87;33.90;42.03;;
53702;Laerm;39594;52.194;9.886;2023-02-28T00:32:25;38.84;33.44;44.73;;
53702;Laerm;39594;52.194;9.886;2023-02-28T00:34:51;53.53;33.44;72.62;;
53702;Laerm;39594;52.194;9.886;2023-02-28T00:37:18;39.44;33.90;43.39;;
53702;Laerm;39594;52.194;9.886;2023-02-28T00:39:56;39.23;34.69;41.89;;
53702;Laerm;39594;52.194;9.886;2023-02-28T00:42:21;39.12;35.04;41.88;;
53702;Laerm;39594;52.194;9.886;2023-02-28T00:45:05;38.97;34.31;48.08;;
53702;Laerm;39594;52.194;9.886;2023-02-28T00:47:36;38.86;33.90;41.89;;
53702;Laerm;39594;52.194;9.886;2023-02-28T00:50:01;50.68;35.36;68.70;;
53702;Laerm;39594;52.194;9.886;2023-02-28T00:52:27;51.75;34.69;69.73;;
53702;Laerm;39594;52.194;9.886;2023-02-28T00:54:58;38.86;34.31;42.22;;
53702;Laerm;39594;52.194;9.886;2023-02-28T00:57:23;38.85;33.90;41.61;;
53702;Laerm;39594;52.194;9.886;2023-02-28T00:59:52;38.83;33.90;44.69;;
53702;Laerm;39594;52.194;9.886;2023-02-28T01:07:23;38.95;34.31;42.88;;
53702;Laerm;39594;52.194;9.886;2023-02-28T01:09:48;38.92;34.31;41.75;;
53702;Laerm;39594;52.194;9.886;2023-02-28T01:12:13;59.57;35.04;79.83;;
53702;Laerm;39594;52.194;9.886;2023-02-28T01:14:39;39.07;33.44;42.09;;
53702;Laerm;39594;52.194;9.886;2023-02-28T01:17:04;38.97;32.35;42.09;;
53702;Laerm;39594;52.194;9.886;2023-02-28T01:19:30;39.34;33.90;42.35;;
53702;Laerm;39594;52.194;9.886;2023-02-28T01:21:55;39.61;35.04;42.29;;
53702;Laerm;39594;52.194;9.886;2023-02-28T01:24:20;39.07;33.90;41.53;;
53702;Laerm;39594;52.194;9.886;2023-02-28T01:26:45;39.00;33.90;42.03;;
53702;Laerm;39594;52.194;9.886;2023-02-28T01:29:10;39.20;34.31;41.61;;
53702;Laerm;39594;52.194;9.886;2023-02-28T01:31:36;39.12;34.31;44.62;;
53702;Laerm;39594;52.194;9.886;2023-02-28T01:34:01;39.36;33.90;41.68;;
53702;Laerm;39594;52.194;9.886;2023-02-28T01:36:26;52.97;34.69;71.29;;
53702;Laerm;39594;52.194;9.886;2023-02-28T01:38:51;39.29;32.93;41.89;;
53702;Laerm;39594;52.194;9.886;2023-02-28T01:41:24;39.44;34.69;42.16;;
53702;Laerm;39594;52.194;9.886;2023-02-28T01:46:15;39.53;35.04;42.65;;
53702;Laerm;39594;52.194;9.886;2023-02-28T01:48:41;51.23;34.69;68.06;;
53702;Laerm;39594;52.194;9.886;2023-02-28T01:51:08;39.48;35.36;42.47;;
53702;Laerm;39594;52.194;9.886;2023-02-28T01:53:37;39.49;35.36;41.82;;
53702;Laerm;39594;52.194;9.886;2023-02-28T01:56:04;39.40;35.66;41.82;;
53702;Laerm;39594;52.194;9.886;2023-02-28T01:58:31;39.33;32.93;41.82;;
53702;Laerm;39594;52.194;9.886;2023-02-28T02:00:56;39.17;33.90;43.44;;
53702;Laerm;39594;52.194;9.886;2023-02-28T02:03:22;39.18;34.69;41.75;;
53702;Laerm;39594;52.194;9.886;2023-02-28T02:05:48;39.26;35.36;42.24;;
53702;Laerm;39594;52.194;9.886;2023-02-28T02:08:15;50.47;35.04;67.73;;
53702;Laerm;39594;52.194;9.886;2023-02-28T02:10:43;39.39;34.69;41.89;;
53702;Laerm;39594;52.194;9.886;2023-02-28T02:13:15;39.04;34.69;48.03;;
53702;Laerm;39594;52.194;9.886;2023-02-28T02:15:49;39.08;34.69;52.89;;
53702;Laerm;39594;52.194;9.886;2023-02-28T02:23:45;39.82;33.90;46.84;;
53702;Laerm;39594;52.194;9.886;2023-02-28T02:28:49;39.34;33.90;45.99;;
53702;Laerm;39594;52.194;9.886;2023-02-28T02:36:43;39.24;35.04;41.89;;
53702;Laerm;39594;52.194;9.886;2023-02-28T02:39:16;39.10;34.31;41.96;;
53702;Laerm;39594;52.194;9.886;2023-02-28T02:41:46;39.43;34.69;42.09;;
53702;Laerm;39594;52.194;9.886;2023-02-28T02:44:17;39.33;34.31;41.89;;
53702;Laerm;39594;52.194;9.886;2023-02-28T02:46:45;39.24;35.04;41.75;;
53702;Laerm;39594;52.194;9.886;2023-02-28T02:49:21;39.20;35.04;41.82;;
53702;Laerm;39594;52.194;9.886;2023-02-28T02:51:47;50.35;33.44;68.61;;
53702;Laerm;39594;52.194;9.886;2023-02-28T02:54:17;49.97;34.69;68.17;;
53702;Laerm;39594;52.194;9.886;2023-02-28T02:56:45;39.31;35.36;41.89;;
53702;Laerm;39594;52.194;9.886;2023-02-28T02:59:12;40.07;35.94;66.92;;
53702;Laerm;39594;52.194;9.886;2023-02-28T03:01:38;39.76;35.36;48.54;;
53702;Laerm;39594;52.194;9.886;2023-02-28T03:04:07;50.32;36.69;68.31;;
53702;Laerm;39594;52.194;9.886;2023-02-28T03:06:33;52.20;36.91;70.49;;
53702;Laerm;39594;52.194;9.886;2023-02-28T03:08:59;40.03;34.69;42.42;;
53702;Laerm;39594;52.194;9.886;2023-02-28T03:11:24;39.77;35.36;42.36;;
53702;Laerm;39594;52.194;9.886;2023-02-28T03:13:54;53.47;34.69;72.08;;
53702;Laerm;39594;52.194;9.886;2023-02-28T03:19:03;54.37;35.04;75.74;;
53702;Laerm;39594;52.194;9.886;2023-02-28T03:21:34;39.54;34.31;46.30;;
53702;Laerm;39594;52.194;9.886;2023-02-28T03:24:11;39.92;35.36;46.07;;
53702;Laerm;39594;52.194;9.886;2023-02-28T03:26:45;54.16;34.69;68.84;;
53702;Laerm;39594;52.194;9.886;2023-02-28T03:29:15;53.81;35.36;72.20;;
53702;Laerm;39594;52.194;9.886;2023-02-28T03:31:54;39.69;35.94;43.09;;
53702;Laerm;39594;52.194;9.886;2023-02-28T03:34:29;39.99;35.66;46.10;;
53702;Laerm;39594;52.194;9.886;2023-02-28T03:36:57;51.63;35.36;71.16;;
53702;Laerm;39594;52.194;9.886;2023-02-28T03:39:34;47.10;35.66;66.61;;
53702;Laerm;39594;52.194;9.886;2023-02-28T03:42:02;48.11;35.66;69.08;;
53702;Laerm;39594;52.194;9.886;2023-02-28T03:44:32;54.44;37.88;69.46;;
53702;Laerm;39594;52.194;9.886;2023-02-28T03:47:21;52.44;37.52;69.68;;
53702;Laerm;39594;52.194;9.886;2023-02-28T03:49:45;56.74;36.69;71.74;;
53702;Laerm;39594;52.194;9.886;2023-02-28T03:52:12;54.11;37.70;70.38;;
53702;Laerm;39594;52.194;9.886;2023-02-28T03:54:44;50.20;37.70;66.55;;
53702;Laerm;39594;52.194;9.886;2023-02-28T03:57:23;50.92;37.70;70.20;;
53702;Laerm;39594;52.194;9.886;2023-02-28T04:00:02;52.09;37.70;70.93;;
53702;Laerm;39594;52.194;9.886;2023-02-28T04:02:30;57.13;39.70;71.17;;
53702;Laerm;39594;52.194;9.886;2023-02-28T04:04:56;57.12;38.81;74.94;;
53702;Laerm;39594;52.194;9.886;2023-02-28T04:07:21;41.05;37.52;45.04;;
53702;Laerm;39594;52.194;9.886;2023-02-28T04:09:46;57.20;37.88;69.88;;
53702;Laerm;39594;52.194;9.886;2023-02-28T04:12:12;59.55;38.52;72.12;;
53702;Laerm;39594;52.194;9.886;2023-02-28T04:14:37;58.30;38.95;74.30;;
53702;Laerm;39594;52.194;9.886;2023-02-28T04:17:02;61.19;40.13;76.14;;
53702;Laerm;39594;52.194;9.886;2023-02-28T04:19:27;60.90;40.33;74.40;;
53702;Laerm;39594;52.194;9.886;2023-02-28T04:21:53;61.68;38.67;72.78;;
53702;Laerm;39594;52.194;9.886;2023-02-28T04:24:19;62.68;40.13;77.77;;
53702;Laerm;39594;52.194;9.886;2023-02-28T04:26:45;61.62;41.61;80.38;;
53702;Laerm;39594;52.194;9.886;2023-02-28T04:29:12;61.80;40.03;77.36;;
53702;Laerm;39594;52.194;9.886;2023-02-28T04:31:38;60.65;40.53;71.98;;
53702;Laerm;39594;52.194;9.886;2023-02-28T04:34:03;57.32;38.52;73.57;;
53702;Laerm;39594;52.194;9.886;2023-02-28T04:36:28;58.95;40.62;75.19;;
53702;Laerm;39594;52.194;9.886;2023-02-28T04:38:54;61.76;41.19;74.39;;
53702;Laerm;39594;52.194;9.886;2023-02-28T04:41:19;61.05;40.23;73.97;;
53702;Laerm;39594;52.194;9.886;2023-02-28T04:43:45;62.19;40.98;74.24;;
53702;Laerm;39594;52.194;9.886;2023-02-28T04:46:10;64.24;41.68;78.64;;
53702;Laerm;39594;52.194;9.886;2023-02-28T04:48:36;63.62;41.61;76.73;;
53702;Laerm;39594;52.194;9.886;2023-02-28T04:51:12;62.07;40.27;76.08;;
53702;Laerm;39594;52.194;9.886;2023-02-28T04:53:38;61.02;40.13;73.04;;
53702;Laerm;39594;52.194;9.886;2023-02-28T04:56:04;59.46;39.08;73.54;;
53702;Laerm;39594;52.194;9.886;2023-02-28T04:58:29;57.91;40.62;74.54;;
53702;Laerm;39594;52.194;9.886;2023-02-28T05:00:56;60.31;40.98;74.08;;
53702;Laerm;39594;52.194;9.886;2023-02-28T05:03:25;64.26;41.30;79.44;;
53702;Laerm;39594;52.194;9.886;2023-02-28T05:05:51;63.45;40.89;75.65;;
53702;Laerm;39594;52.194;9.886;2023-02-28T05:08:16;59.01;40.23;72.81;;
53702;Laerm;39594;52.194;9.886;2023-02-28T05:10:41;61.90;40.80;75.88;;
53702;Laerm;39594;52.194;9.886;2023-02-28T05:13:06;61.32;39.92;77.78;;
53702;Laerm;39594;52.194;9.886;2023-02-28T05:15:31;62.38;41.82;75.14;;
53702;Laerm;39594;52.194;9.886;2023-02-28T05:17:56;61.57;40.62;73.28;;
53702;Laerm;39594;52.194;9.886;2023-02-28T05:20:22;64.35;42.03;76.86;;
53702;Laerm;39594;52.194;9.886;2023-02-28T05:22:47;62.24;41.68;74.86;;
53702;Laerm;39594;52.194;9.886;2023-02-28T05:25:13;64.02;44.07;79.04;;
53702;Laerm;39594;52.194;9.886;2023-02-28T05:27:40;60.96;41.46;74.15;;
53702;Laerm;39594;52.194;9.886;2023-02-28T05:30:06;61.76;40.98;72.41;;
53702;Laerm;39594;52.194;9.886;2023-02-28T05:32:31;59.37;40.33;73.31;;
53702;Laerm;39594;52.194;9.886;2023-02-28T05:34:56;63.15;42.65;74.05;;
53702;Laerm;39594;52.194;9.886;2023-02-28T05:37:21;64.35;41.75;76.44;;
53702;Laerm;39594;52.194;9.886;2023-02-28T05:39:47;65.03;43.54;78.83;;
53702;Laerm;39594;52.194;9.886;2023-02-28T05:42:12;66.80;45.04;79.87;;
53702;Laerm;39594;52.194;9.886;2023-02-28T05:44:37;66.46;43.29;79.98;;
53702;Laerm;39594;52.194;9.886;2023-02-28T05:47:03;65.31;45.30;75.69;;
53702;Laerm;39594;52.194;9.886;2023-02-28T05:49:28;66.02;43.72;78.31;;
53702;Laerm;39594;52.194;9.886;2023-02-28T05:51:53;64.96;42.29;75.32;;
53702;Laerm;39594;52.194;9.886;2023-02-28T05:54:18;63.51;42.47;75.98;;
53702;Laerm;39594;52.194;9.886;2023-02-28T05:56:44;66.68;43.58;78.65;;
53702;Laerm;39594;52.194;9.886;2023-02-28T05:59:10;60.42;42.47;75.22;;
53702;Laerm;39594;52.194;9.886;2023-02-28T06:01:37;63.68;43.14;77.05;;
53702;Laerm;39594;52.194;9.886;2023-02-28T06:04:03;64.95;42.98;77.35;;
53702;Laerm;39594;52.194;9.886;2023-02-28T06:06:29;65.90;43.24;77.09;;
53702;Laerm;39594;52.194;9.886;2023-02-28T06:08:54;66.23;42.98;79.94;;
53702;Laerm;39594;52.194;9.886;2023-02-28T06:11:20;65.17;44.65;77.67;;
53702;Laerm;39594;52.194;9.886;2023-02-28T06:13:45;66.00;45.75;75.19;;
53702;Laerm;39594;52.194;9.886;2023-02-28T06:16:11;64.28;43.68;78.96;;
53702;Laerm;39594;52.194;9.886;2023-02-28T06:18:36;67.78;43.58;80.45;;
53702;Laerm;39594;52.194;9.886;2023-02-28T06:21:01;65.23;43.24;75.63;;
53702;Laerm;39594;52.194;9.886;2023-02-28T06:23:27;66.21;44.19;75.05;;
53702;Laerm;39594;52.194;9.886;2023-02-28T06:25:52;64.63;44.69;75.42;;
53702;Laerm;39594;52.194;9.886;2023-02-28T06:28:18;64.92;43.77;77.37;;
53702;Laerm;39594;52.194;9.886;2023-02-28T06:30:43;64.47;43.77;79.76;;
53702;Laerm;39594;52.194;9.886;2023-02-28T06:33:08;65.22;44.35;78.03;;
53702;Laerm;39594;52.194;9.886;2023-02-28T06:35:33;65.89;42.59;78.29;;
53702;Laerm;39594;52.194;9.886;2023-02-28T06:37:58;66.75;43.34;79.19;;
53702;Laerm;39594;52.194;9.886;2023-02-28T06:40:24;67.51;46.33;92.85;;
53702;Laerm;39594;52.194;9.886;2023-02-28T06:42:49;66.67;44.76;81.77;;
53702;Laerm;39594;52.194;9.886;2023-02-28T06:45:14;65.35;42.76;78.94;;
53702;Laerm;39594;52.194;9.886;2023-02-28T06:47:40;69.45;60.76;82.08;;
53702;Laerm;39594;52.194;9.886;2023-02-28T06:50:06;67.08;60.34;77.19;;
53702;Laerm;39594;52.194;9.886;2023-02-28T06:52:31;67.20;60.14;74.07;;
53702;Laerm;39594;52.194;9.886;2023-02-28T06:54:56;68.19;60.86;80.85;;
53702;Laerm;39594;52.194;9.886;2023-02-28T06:57:28;68.19;60.28;81.75;;
53702;Laerm;39594;52.194;9.886;2023-02-28T06:59:56;66.13;45.66;75.84;;
53702;Laerm;39594;52.194;9.886;2023-02-28T07:02:21;66.46;43.54;81.49;;
53702;Laerm;39594;52.194;9.886;2023-02-28T07:04:46;65.96;41.82;79.98;;
53702;Laerm;39594;52.194;9.886;2023-02-28T07:07:11;65.72;43.90;81.31;;
53702;Laerm;39594;52.194;9.886;2023-02-28T07:09:36;67.12;45.14;78.64;;
53702;Laerm;39594;52.194;9.886;2023-02-28T07:12:02;66.23;43.19;78.30;;
53702;Laerm;39594;52.194;9.886;2023-02-28T07:14:27;67.80;44.07;80.22;;
53702;Laerm;39594;52.194;9.886;2023-02-28T07:16:52;63.92;43.49;77.26;;
53702;Laerm;39594;52.194;9.886;2023-02-28T07:19:17;65.55;44.35;79.48;;
53702;Laerm;39594;52.194;9.886;2023-02-28T07:21:42;66.38;44.39;80.45;;
53702;Laerm;39594;52.194;9.886;2023-02-28T07:24:07;63.01;41.89;76.32;;
53702;Laerm;39594;52.194;9.886;2023-02-28T07:26:33;63.52;42.59;75.29;;
53702;Laerm;39594;52.194;9.886;2023-02-28T07:28:59;64.72;43.04;77.32;;
53702;Laerm;39594;52.194;9.886;2023-02-28T07:31:25;66.07;43.24;81.13;;
53702;Laerm;39594;52.194;9.886;2023-02-28T07:33:50;63.52;42.09;73.75;;
53702;Laerm;39594;52.194;9.886;2023-02-28T07:36:16;64.96;41.96;75.41;;
53702;Laerm;39594;52.194;9.886;2023-02-28T07:38:44;65.18;43.14;79.37;;
53702;Laerm;39594;52.194;9.886;2023-02-28T07:41:10;64.20;42.29;80.08;;
53702;Laerm;39594;52.194;9.886;2023-02-28T07:43:35;66.24;43.68;79.91;;
53702;Laerm;39594;52.194;9.886;2023-02-28T07:46:01;65.60;42.03;83.17;;
53702;Laerm;39594;52.194;9.886;2023-02-28T07:48:27;59.41;40.98;73.33;;
53702;Laerm;39594;52.194;9.886;2023-02-28T07:50:55;66.07;41.53;78.71;;
53702;Laerm;39594;52.194;9.886;2023-02-28T07:53:20;64.47;42.47;79.05;;
53702;Laerm;39594;52.194;9.886;2023-02-28T07:55:46;63.67;42.22;80.00;;
53702;Laerm;39594;52.194;9.886;2023-02-28T07:58:11;63.87;42.29;75.86;;
53702;Laerm;39594;52.194;9.886;2023-02-28T08:00:36;63.29;41.68;76.81;;
53702;Laerm;39594;52.194;9.886;2023-02-28T08:03:01;64.47;41.53;79.87;;
53702;Laerm;39594;52.194;9.886;2023-02-28T08:05:26;67.65;43.09;84.83;;
53702;Laerm;39594;52.194;9.886;2023-02-28T08:07:51;64.48;42.35;77.97;;
53702;Laerm;39594;52.194;9.886;2023-02-28T08:10:18;65.28;43.19;82.26;;
53702;Laerm;39594;52.194;9.886;2023-02-28T08:12:43;63.92;42.22;82.85;;
53702;Laerm;39594;52.194;9.886;2023-02-28T08:15:08;61.72;43.24;75.82;;
53702;Laerm;39594;52.194;9.886;2023-02-28T08:17:33;62.53;42.47;84.36;;
53702;Laerm;39594;52.194;9.886;2023-02-28T08:19:59;64.31;42.71;77.42;;
53702;Laerm;39594;52.194;9.886;2023-02-28T08:22:24;65.12;42.65;78.26;;
53702;Laerm;39594;52.194;9.886;2023-02-28T08:24:49;65.11;41.96;81.00;;
53702;Laerm;39594;52.194;9.886;2023-02-28T08:27:14;61.63;40.98;72.52;;
53702;Laerm;39594;52.194;9.886;2023-02-28T08:29:39;62.40;41.38;75.09;;
53702;Laerm;39594;52.194;9.886;2023-02-28T08:32:06;63.88;41.14;82.80;;
53702;Laerm;39594;52.194;9.886;2023-02-28T08:34:31;66.75;42.09;82.46;;
53702;Laerm;39594;52.194;9.886;2023-02-28T08:36:57;62.93;42.22;78.63;;
53702;Laerm;39594;52.194;9.886;2023-02-28T08:39:22;63.57;42.03;77.86;;
53702;Laerm;39594;52.194;9.886;2023-02-28T08:41:47;66.98;43.19;83.83;;
53702;Laerm;39594;52.194;9.886;2023-02-28T08:44:12;65.34;41.82;78.68;;
53702;Laerm;39594;52.194;9.886;2023-02-28T08:46:38;62.93;42.59;78.59;;
53702;Laerm;39594;52.194;9.886;2023-02-28T08:49:03;62.92;41.38;77.93;;
53702;Laerm;39594;52.194;9.886;2023-02-28T08:51:28;66.63;39.08;78.80;;
53702;Laerm;39594;52.194;9.886;2023-02-28T08:53:54;59.48;40.62;74.75;;
53702;Laerm;39594;52.194;9.886;2023-02-28T08:56:19;62.98;40.03;77.53;;
53702;Laerm;39594;52.194;9.886;2023-02-28T08:58:45;64.79;40.13;77.70;;
53702;Laerm;39594;52.194;9.886;2023-02-28T09:01:15;61.65;42.09;72.74;;
53702;Laerm;39594;52.194;9.886;2023-02-28T09:03:41;60.97;40.03;72.20;;
53702;Laerm;39594;52.194;9.886;2023-02-28T09:06:07;57.92;39.70;71.10;;
53702;Laerm;39594;52.194;9.886;2023-02-28T09:08:33;60.56;39.08;74.83;;
53702;Laerm;39594;52.194;9.886;2023-02-28T09:10:58;63.20;41.19;79.98;;
53702;Laerm;39594;52.194;9.886;2023-02-28T09:13:24;64.44;42.09;79.80;;
53702;Laerm;39594;52.194;9.886;2023-02-28T09:15:49;67.04;41.46;81.29;;
53702;Laerm;39594;52.194;9.886;2023-02-28T09:18:15;63.94;42.35;78.01;;
53702;Laerm;39594;52.194;9.886;2023-02-28T09:20:42;64.07;40.80;81.06;;
53702;Laerm;39594;52.194;9.886;2023-02-28T09:23:08;61.88;40.33;78.50;;
53702;Laerm;39594;52.194;9.886;2023-02-28T09:25:33;61.29;40.03;73.33;;
53702;Laerm;39594;52.194;9.886;2023-02-28T09:27:59;66.20;40.71;82.72;;
53702;Laerm;39594;52.194;9.886;2023-02-28T09:30:24;62.89;39.58;77.21;;
53702;Laerm;39594;52.194;9.886;2023-02-28T09:32:49;58.83;38.37;72.42;;
53702;Laerm;39594;52.194;9.886;2023-02-28T09:35:17;59.26;35.94;72.83;;
53702;Laerm;39594;52.194;9.886;2023-02-28T09:37:42;62.56;39.92;80.17;;
53702;Laerm;39594;52.194;9.886;2023-02-28T09:40:08;66.34;43.24;79.29;;
53702;Laerm;39594;52.194;9.886;2023-02-28T09:42:34;60.46;39.81;75.61;;
53702;Laerm;39594;52.194;9.886;2023-02-28T09:45:05;57.80;40.53;71.04;;
53702;Laerm;39594;52.194;9.886;2023-02-28T09:47:36;62.34;41.81;74.73;;
53702;Laerm;39594;52.194;9.886;2023-02-28T09:52:48;63.39;41.68;74.85;;
53702;Laerm;39594;52.194;9.886;2023-02-28T09:57:40;63.50;42.16;82.07;;
53702;Laerm;39594;52.194;9.886;2023-02-28T10:00:19;68.55;41.75;83.48;;
53702;Laerm;39594;52.194;9.886;2023-02-28T10:02:55;60.36;38.95;76.62;;
53702;Laerm;39594;52.194;9.886;2023-02-28T10:05:59;63.22;39.34;76.42;;
53702;Laerm;39594;52.194;9.886;2023-02-28T10:08:25;62.59;39.46;75.48;;
53702;Laerm;39594;52.194;9.886;2023-02-28T10:10:56;60.16;37.52;72.45;;
53702;Laerm;39594;52.194;9.886;2023-02-28T10:13:35;60.13;35.36;72.28;;
53702;Laerm;39594;52.194;9.886;2023-02-28T10:16:03;65.10;42.88;79.73;;
53702;Laerm;39594;52.194;9.886;2023-02-28T10:18:31;60.01;39.08;73.85;;
53702;Laerm;39594;52.194;9.886;2023-02-28T10:21:00;63.90;40.89;82.85;;
53702;Laerm;39594;52.194;9.886;2023-02-28T10:23:27;65.79;43.09;77.75;;
53702;Laerm;39594;52.194;9.886;2023-02-28T10:25:55;58.00;36.69;71.59;;
53702;Laerm;39594;52.194;9.886;2023-02-28T10:28:21;60.88;36.20;78.44;;
53702;Laerm;39594;52.194;9.886;2023-02-28T10:30:49;63.37;37.88;80.89;;
53702;Laerm;39594;52.194;9.886;2023-02-28T10:33:22;62.22;39.34;75.29;;
53702;Laerm;39594;52.194;9.886;2023-02-28T10:35:48;60.19;37.70;76.92;;
53702;Laerm;39594;52.194;9.886;2023-02-28T10:38:21;60.98;39.08;71.13;;
53702;Laerm;39594;52.194;9.886;2023-02-28T10:40:47;62.01;35.66;75.84;;
53702;Laerm;39594;52.194;9.886;2023-02-28T10:45:37;59.44;37.32;74.90;;
53702;Laerm;39594;52.194;9.886;2023-02-28T10:48:50;58.74;38.67;71.80;;
53702;Laerm;39594;52.194;9.886;2023-02-28T10:55:39;65.63;41.55;80.13;;
53702;Laerm;39594;52.194;9.886;2023-02-28T10:58:18;66.94;40.62;79.53;;
53702;Laerm;39594;52.194;9.886;2023-02-28T11:00:45;59.65;37.70;73.63;;
53702;Laerm;39594;52.194;9.886;2023-02-28T11:03:30;58.65;37.88;73.79;;
53702;Laerm;39594;52.194;9.886;2023-02-28T11:05:56;62.56;40.03;77.58;;
53702;Laerm;39594;52.194;9.886;2023-02-28T11:08:22;64.13;40.53;81.25;;
53702;Laerm;39594;52.194;9.886;2023-02-28T11:10:48;63.79;39.81;78.39;;
53702;Laerm;39594;52.194;9.886;2023-02-28T11:13:19;62.33;39.58;75.85;;
53702;Laerm;39594;52.194;9.886;2023-02-28T11:15:51;65.55;41.38;87.34;;
53702;Laerm;39594;52.194;9.886;2023-02-28T11:18:23;60.62;37.88;72.44;;
53702;Laerm;39594;52.194;9.886;2023-02-28T11:20:50;61.36;39.08;71.48;;
53702;Laerm;39594;52.194;9.886;2023-02-28T11:23:16;61.39;37.88;73.31;;
53702;Laerm;39594;52.194;9.886;2023-02-28T11:25:46;63.00;41.14;77.26;;
53702;Laerm;39594;52.194;9.886;2023-02-28T11:36:17;61.57;39.34;71.79;;
53702;Laerm;39594;52.194;9.886;2023-02-28T11:38:43;63.62;39.34;79.11;;
53702;Laerm;39594;52.194;9.886;2023-02-28T11:43:39;62.49;40.33;74.07;;
53702;Laerm;39594;52.194;9.886;2023-02-28T11:48:49;65.08;37.32;81.67;;
53702;Laerm;39594;52.194;9.886;2023-02-28T11:51:23;62.89;39.46;74.73;;
53702;Laerm;39594;52.194;9.886;2023-02-28T12:06:55;61.64;38.37;77.48;;
53702;Laerm;39594;52.194;9.886;2023-02-28T12:14:46;65.26;41.06;81.74;;
53702;Laerm;39594;52.194;9.886;2023-02-28T12:22:21;57.98;39.08;68.58;;
53702;Laerm;39594;52.194;9.886;2023-02-28T12:25:03;61.47;37.32;72.08;;
53702;Laerm;39594;52.194;9.886;2023-02-28T12:27:38;61.73;39.46;77.42;;
53702;Laerm;39594;52.194;9.886;2023-02-28T12:33:02;63.82;40.80;75.75;;
53702;Laerm;39594;52.194;9.886;2023-02-28T12:35:51;60.95;35.04;71.18;;
53702;Laerm;39594;52.194;9.886;2023-02-28T12:38:19;59.45;35.66;74.83;;
53702;Laerm;39594;52.194;9.886;2023-02-28T12:43:39;62.90;38.95;79.00;;
53702;Laerm;39594;52.194;9.886;2023-02-28T12:46:14;65.61;40.03;79.39;;
53702;Laerm;39594;52.194;9.886;2023-02-28T12:49:30;63.44;41.22;77.98;;
53702;Laerm;39594;52.194;9.886;2023-02-28T12:51:28;63.93;42.29;78.31;;
53702;Laerm;39594;52.194;9.886;2023-02-28T12:56:48;60.88;38.67;77.46;;
53702;Laerm;39594;52.194;9.886;2023-02-28T12:59:24;65.10;35.94;79.02;;
53702;Laerm;39594;52.194;9.886;2023-02-28T13:07:39;60.60;38.67;73.24;;
53702;Laerm;39594;52.194;9.886;2023-02-28T13:10:11;64.96;42.16;81.54;;
53702;Laerm;39594;52.194;9.886;2023-02-28T13:12:47;63.63;41.14;77.52;;
53702;Laerm;39594;52.194;9.886;2023-02-28T13:15:25;62.23;37.32;74.48;;
53702;Laerm;39594;52.194;9.886;2023-02-28T13:17:56;60.75;34.31;77.23;;
53702;Laerm;39594;52.194;9.886;2023-02-28T13:20:27;65.77;38.21;82.19;;
53702;Laerm;39594;52.194;9.886;2023-02-28T13:22:57;59.68;38.81;71.61;;
53702;Laerm;39594;52.194;9.886;2023-02-28T13:27:50;63.44;41.53;71.89;;
53702;Laerm;39594;52.194;9.886;2023-02-28T13:33:59;63.49;38.21;79.02;;
53702;Laerm;39594;52.194;9.886;2023-02-28T13:36:28;60.13;37.70;73.85;;
53702;Laerm;39594;52.194;9.886;2023-02-28T13:41:55;60.90;34.69;74.44;;
53702;Laerm;39594;52.194;9.886;2023-02-28T13:44:24;60.93;37.88;71.94;;
53702;Laerm;39594;52.194;9.886;2023-02-28T13:49:25;62.59;39.92;76.53;;
53702;Laerm;39594;52.194;9.886;2023-02-28T13:57:54;63.09;37.70;79.36;;
53702;Laerm;39594;52.194;9.886;2023-02-28T14:05:29;62.39;40.89;72.45;;
53702;Laerm;39594;52.194;9.886;2023-02-28T14:07:57;61.95;38.95;72.67;;
53702;Laerm;39594;52.194;9.886;2023-02-28T14:10:25;63.34;37.52;78.80;;
53702;Laerm;39594;52.194;9.886;2023-02-28T14:18:03;59.81;35.66;71.11;;
53702;Laerm;39594;52.194;9.886;2023-02-28T14:20:53;64.46;41.06;76.90;;
53702;Laerm;39594;52.194;9.886;2023-02-28T14:31:38;62.38;38.67;78.04;;
53702;Laerm;39594;52.194;9.886;2023-02-28T14:37:01;64.86;39.46;78.64;;
53702;Laerm;39594;52.194;9.886;2023-02-28T14:39:27;63.28;43.72;73.06;;
53702;Laerm;39594;52.194;9.886;2023-02-28T14:41:55;61.86;40.23;71.11;;
53702;Laerm;39594;52.194;9.886;2023-02-28T14:44:24;62.44;40.98;75.26;;
53702;Laerm;39594;52.194;9.886;2023-02-28T14:46:56;63.22;37.88;77.12;;
53702;Laerm;39594;52.194;9.886;2023-02-28T14:49:41;63.10;35.94;73.49;;
53702;Laerm;39594;52.194;9.886;2023-02-28T14:52:20;64.39;41.53;75.29;;
53702;Laerm;39594;52.194;9.886;2023-02-28T14:54:51;63.45;39.21;78.04;;
53702;Laerm;39594;52.194;9.886;2023-02-28T14:57:25;65.12;42.93;77.64;;
53702;Laerm;39594;52.194;9.886;2023-02-28T15:02:39;62.45;42.09;73.26;;
53702;Laerm;39594;52.194;9.886;2023-02-28T15:05:15;62.48;41.30;75.36;;
53702;Laerm;39594;52.194;9.886;2023-02-28T15:07:47;63.42;42.59;81.27;;
53702;Laerm;39594;52.194;9.886;2023-02-28T15:12:52;64.87;41.26;76.90;;
53702;Laerm;39594;52.194;9.886;2023-02-28T15:15:18;63.35;40.71;77.88;;
53702;Laerm;39594;52.194;9.886;2023-02-28T15:17:51;62.76;40.43;72.06;;
53702;Laerm;39594;52.194;9.886;2023-02-28T15:20:18;62.65;40.54;72.30;;
53702;Laerm;39594;52.194;9.886;2023-02-28T15:22:44;63.55;39.78;74.50;;
53702;Laerm;39594;52.194;9.886;2023-02-28T15:25:11;64.68;42.82;78.14;;
53702;Laerm;39594;52.194;9.886;2023-02-28T15:27:44;63.76;39.81;78.41;;
53702;Laerm;39594;52.194;9.886;2023-02-28T15:30:15;62.40;42.65;76.41;;
53702;Laerm;39594;52.194;9.886;2023-02-28T15:32:44;62.59;40.23;73.41;;
53702;Laerm;39594;52.194;9.886;2023-02-28T15:40:23;63.01;41.38;72.66;;
53702;Laerm;39594;52.194;9.886;2023-02-28T15:45:55;62.75;41.30;71.80;;
53702;Laerm;39594;52.194;9.886;2023-02-28T15:48:26;64.76;43.04;75.11;;
53702;Laerm;39594;52.194;9.886;2023-02-28T15:51:01;63.51;40.33;76.15;;
53702;Laerm;39594;52.194;9.886;2023-02-28T15:53:35;63.87;40.89;89.82;;
53702;Laerm;39594;52.194;9.886;2023-02-28T15:56:02;63.60;40.23;74.51;;
53702;Laerm;39594;52.194;9.886;2023-02-28T15:58:31;63.30;41.53;75.19;;
53702;Laerm;39594;52.194;9.886;2023-02-28T16:01:03;63.93;41.30;77.48;;
53702;Laerm;39594;52.194;9.886;2023-02-28T16:03:43;65.62;42.22;78.58;;
53702;Laerm;39594;52.194;9.886;2023-02-28T16:08:41;61.20;39.08;72.64;;
53702;Laerm;39594;52.194;9.886;2023-02-28T16:11:16;62.56;40.43;71.55;;
53702;Laerm;39594;52.194;9.886;2023-02-28T16:13:42;63.38;43.77;72.37;;